createdAt,value
2023-03-08T00:00:18.281Z,2.88
2023-03-08T00:02:53.700Z,2.86
2023-03-08T00:05:26.814Z,2.87
2023-03-08T00:07:59.229Z,2.88
2023-03-08T00:10:31.781Z,2.85
2023-03-08T00:13:05.611Z,2.84
2023-03-08T00:15:41.478Z,2.81
2023-03-08T00:18:15.493Z,2.83
2023-03-08T00:20:48.104Z,2.82
2023-03-08T00:23:20.544Z,2.84
2023-03-08T00:25:56.347Z,2.87
2023-03-08T00:28:28.969Z,2.89
2023-03-08T00:31:05.233Z,2.91
2023-03-08T00:33:38.869Z,2.90
2023-03-08T00:36:19.451Z,2.92
2023-03-08T00:38:52.812Z,2.94
2023-03-08T00:41:25.538Z,2.96
2023-03-08T00:43:57.833Z,2.99
2023-03-08T00:46:32.255Z,2.99
2023-03-08T00:49:04.993Z,3.03
2023-03-08T00:51:37.824Z,3.06
2023-03-08T00:54:11.279Z,3.08
2023-03-08T00:56:44.201Z,3.09
2023-03-08T00:59:16.734Z,3.10
2023-03-08T01:01:49.315Z,3.10
2023-03-08T01:04:23.174Z,3.13
2023-03-08T01:06:56.198Z,3.14
2023-03-08T01:09:29.304Z,3.14
2023-03-08T01:12:01.732Z,3.10
2023-03-08T01:14:35.495Z,3.05
2023-03-08T01:17:07.830Z,3.04
2023-03-08T01:19:40.364Z,2.99
2023-03-08T01:22:13.007Z,2.96
2023-03-08T01:24:49.764Z,2.92
2023-03-08T01:27:23.899Z,2.92
2023-03-08T01:29:56.569Z,2.89
2023-03-08T01:32:29.497Z,2.85
2023-03-08T01:35:04.748Z,2.84
2023-03-08T01:37:37.158Z,2.83
2023-03-08T01:40:11.576Z,2.85
2023-03-08T01:42:44.077Z,2.88
2023-03-08T01:46:00.990Z,2.86
2023-03-08T01:48:41.659Z,2.83
2023-03-08T01:51:20.675Z,2.77
2023-03-08T01:53:53.383Z,2.75
2023-03-08T01:56:25.971Z,2.75
2023-03-08T01:59:00.153Z,2.77
2023-03-08T02:01:33.613Z,2.79
2023-03-08T02:04:06.565Z,2.80
2023-03-08T02:06:40.015Z,2.76
2023-03-08T02:09:12.714Z,2.75
2023-03-08T02:11:45.214Z,2.78
2023-03-08T02:14:17.987Z,2.80
2023-03-08T02:16:52.134Z,2.84
2023-03-08T02:19:32.706Z,2.87
2023-03-08T02:22:16.144Z,2.87
2023-03-08T02:24:49.300Z,2.90
2023-03-08T02:27:25.365Z,2.93
2023-03-08T02:29:58.352Z,2.92
2023-03-08T02:32:31.407Z,2.96
2023-03-08T02:35:06.198Z,2.98
2023-03-08T02:37:39.092Z,2.99
2023-03-08T02:40:13.385Z,3.02
2023-03-08T02:42:45.227Z,3.06
2023-03-08T02:45:17.660Z,3.14
2023-03-08T02:47:50.673Z,3.20
2023-03-08T02:50:23.489Z,3.23
2023-03-08T02:52:56.032Z,3.23
2023-03-08T02:55:30.623Z,3.26
2023-03-08T02:58:06.404Z,3.28
2023-03-08T03:00:39.393Z,3.30
2023-03-08T03:03:12.741Z,3.28
2023-03-08T03:05:45.821Z,3.28
2023-03-08T03:08:24.041Z,3.29
2023-03-08T03:10:59.274Z,3.31
2023-03-08T03:13:33.121Z,3.28
2023-03-08T03:16:14.378Z,3.24
2023-03-08T03:18:46.920Z,3.18
2023-03-08T03:21:20.113Z,3.14
2023-03-08T03:23:53.075Z,3.12
2023-03-08T03:26:26.982Z,3.12
2023-03-08T03:29:00.489Z,3.11
2023-03-08T03:31:35.770Z,3.15
2023-03-08T03:34:09.477Z,3.20
2023-03-08T03:36:43.975Z,3.18
2023-03-08T03:39:16.500Z,3.16
2023-03-08T03:41:49.873Z,3.17
2023-03-08T03:44:22.394Z,3.16
2023-03-08T03:46:54.924Z,3.16
2023-03-08T03:49:28.561Z,3.18
2023-03-08T03:52:01.514Z,3.24
2023-03-08T03:54:36.098Z,3.26
2023-03-08T03:57:08.421Z,3.28
2023-03-08T03:59:44.483Z,3.31
2023-03-08T04:02:18.037Z,3.37
2023-03-08T04:04:51.907Z,3.39
2023-03-08T04:07:25.794Z,3.43
2023-03-08T04:10:03.281Z,3.44
2023-03-08T04:12:36.680Z,3.48
2023-03-08T04:15:10.542Z,3.49
2023-03-08T04:17:43.599Z,3.50
2023-03-08T04:20:17.188Z,3.52
2023-03-08T04:22:52.350Z,3.53
2023-03-08T04:25:27.022Z,3.55
2023-03-08T04:28:02.274Z,3.57
2023-03-08T04:30:37.138Z,3.56
2023-03-08T04:33:10.567Z,3.57
2023-03-08T04:35:45.724Z,3.56
2023-03-08T04:38:19.079Z,3.57
2023-03-08T04:41:02.809Z,3.60
2023-03-08T04:43:37.262Z,3.63
2023-03-08T04:46:10.144Z,3.69
2023-03-08T04:48:43.972Z,3.75
2023-03-08T04:51:18.138Z,3.77
2023-03-08T04:53:51.353Z,3.78
2023-03-08T04:56:24.904Z,3.83
2023-03-08T04:58:58.691Z,3.87
2023-03-08T05:01:32.370Z,3.88
2023-03-08T05:04:05.029Z,3.91
2023-03-08T05:06:39.555Z,3.96
2023-03-08T05:09:13.874Z,3.98
2023-03-08T05:11:46.795Z,3.98
2023-03-08T05:14:21.975Z,4.03
2023-03-08T05:17:00.461Z,4.07
2023-03-08T05:19:34.279Z,4.13
2023-03-08T05:22:07.131Z,4.19
2023-03-08T05:24:42.374Z,4.25
2023-03-08T05:27:37.266Z,4.29
2023-03-08T05:30:11.251Z,4.31
2023-03-08T05:32:44.878Z,4.31
2023-03-08T05:35:17.513Z,4.35
2023-03-08T05:37:50.735Z,4.40
2023-03-08T05:40:23.871Z,4.44
2023-03-08T05:42:56.891Z,4.50
2023-03-08T05:45:29.691Z,4.52
2023-03-08T05:48:02.692Z,4.57
2023-03-08T05:50:38.714Z,4.72
2023-03-08T05:53:11.268Z,4.87
2023-03-08T05:55:44.086Z,4.94
2023-03-08T05:58:17.588Z,5.01
2023-03-08T06:00:50.161Z,5.03
2023-03-08T06:03:22.808Z,5.07
2023-03-08T06:05:55.269Z,5.16
2023-03-08T06:08:28.703Z,5.24
2023-03-08T06:11:01.809Z,5.35
2023-03-08T06:13:35.185Z,5.39
2023-03-08T06:16:08.071Z,5.45
2023-03-08T06:18:41.360Z,5.52
2023-03-08T06:21:17.289Z,5.60
2023-03-08T06:23:51.529Z,5.70
2023-03-08T06:26:24.195Z,5.77
2023-03-08T06:28:57.110Z,5.91
2023-03-08T06:31:31.158Z,6.23
2023-03-08T06:34:04.762Z,6.61
2023-03-08T06:36:38.174Z,6.89
2023-03-08T06:39:10.606Z,7.11
2023-03-08T06:41:43.996Z,7.30
2023-03-08T06:44:18.114Z,7.49
2023-03-08T06:46:50.629Z,7.81
2023-03-08T06:49:23.674Z,8.08
2023-03-08T06:51:56.416Z,8.30
2023-03-08T06:54:29.255Z,8.62
2023-03-08T06:57:01.883Z,8.93
2023-03-08T06:59:34.381Z,9.26
2023-03-08T07:02:07.091Z,9.56
2023-03-08T07:04:39.626Z,9.79
2023-03-08T07:07:12.987Z,9.90
2023-03-08T07:09:46.790Z,9.80
2023-03-08T07:12:20.324Z,9.59
2023-03-08T07:14:55.268Z,9.29
2023-03-08T07:17:27.568Z,8.91
2023-03-08T07:19:59.931Z,8.61
2023-03-08T07:22:33.156Z,8.42
2023-03-08T07:25:07.261Z,8.22
2023-03-08T07:27:40.087Z,8.02
2023-03-08T07:30:34.627Z,7.92
2023-03-08T07:33:07.681Z,7.84
2023-03-08T07:35:40.473Z,7.78
2023-03-08T07:38:37.716Z,7.72
2023-03-08T07:41:10.706Z,7.68
2023-03-08T07:43:45.042Z,7.73
2023-03-08T07:46:25.526Z,7.79
2023-03-08T07:48:58.296Z,7.75
2023-03-08T07:51:30.882Z,7.68
2023-03-08T07:54:04.104Z,7.69
2023-03-08T07:56:37.077Z,7.73
2023-03-08T07:59:09.852Z,7.70
2023-03-08T08:01:42.591Z,7.76
2023-03-08T08:04:15.317Z,7.77
2023-03-08T08:06:48.790Z,7.84
2023-03-08T08:09:21.295Z,7.91
2023-03-08T08:11:53.882Z,8.02
2023-03-08T08:14:27.402Z,8.20
2023-03-08T08:17:00.032Z,8.41
2023-03-08T08:19:32.620Z,8.63
2023-03-08T08:22:06.222Z,8.79
2023-03-08T08:24:39.068Z,8.82
2023-03-08T08:27:13.706Z,8.95
2023-03-08T08:29:47.878Z,9.10
2023-03-08T08:32:21.649Z,9.15
2023-03-08T08:34:54.567Z,9.15
2023-03-08T08:37:26.942Z,9.10
2023-03-08T08:39:59.601Z,8.95
2023-03-08T08:42:32.242Z,8.82
2023-03-08T08:45:05.164Z,8.74
2023-03-08T08:47:37.939Z,8.70
2023-03-08T08:50:14.073Z,8.65
2023-03-08T08:52:46.134Z,8.58
2023-03-08T08:55:19.520Z,8.54
2023-03-08T08:57:52.028Z,8.59
2023-03-08T09:00:24.736Z,8.68
2023-03-08T09:02:57.690Z,8.82
2023-03-08T09:05:30.272Z,9.02
2023-03-08T09:08:03.662Z,9.22
2023-03-08T09:10:37.612Z,9.36
2023-03-08T09:13:12.791Z,9.37
2023-03-08T09:15:45.173Z,9.36
2023-03-08T09:18:18.274Z,9.40
2023-03-08T09:20:52.152Z,9.44
2023-03-08T09:23:24.962Z,9.48
2023-03-08T09:26:02.413Z,9.54
2023-03-08T09:28:35.978Z,9.58
2023-03-08T09:31:15.175Z,9.57
2023-03-08T09:33:52.316Z,9.60
2023-03-08T09:36:25.068Z,9.61
2023-03-08T09:38:58.088Z,9.59
2023-03-08T09:41:51.736Z,9.57
2023-03-08T09:45:10.381Z,9.58
2023-03-08T09:47:57.673Z,9.63
2023-03-08T09:50:57.732Z,9.64
2023-03-08T09:53:49.332Z,9.62
2023-03-08T09:56:44.640Z,9.66
2023-03-08T09:59:33.814Z,9.67
2023-03-08T10:02:32.405Z,9.72
2023-03-08T10:05:41.492Z,9.78
2023-03-08T10:08:28.223Z,9.80
2023-03-08T10:11:12.216Z,9.75
2023-03-08T10:13:50.665Z,9.72
2023-03-08T10:16:30.318Z,9.61
2023-03-08T10:19:13.110Z,9.39
2023-03-08T10:21:45.862Z,9.18
2023-03-08T10:24:27.242Z,9.01
2023-03-08T10:27:25.297Z,8.96
2023-03-08T10:30:00.190Z,9.07
2023-03-08T10:32:33.330Z,9.27
2023-03-08T10:35:16.961Z,9.35
2023-03-08T10:37:53.129Z,9.33
2023-03-08T10:40:26.525Z,9.35
2023-03-08T10:43:05.704Z,9.35
2023-03-08T10:45:38.868Z,9.32
2023-03-08T10:48:21.279Z,9.24
2023-03-08T10:51:03.059Z,9.16
2023-03-08T10:53:36.018Z,9.07
2023-03-08T10:56:26.496Z,8.85
2023-03-08T10:58:59.016Z,8.68
2023-03-08T11:01:35.149Z,8.60
2023-03-08T11:04:18.766Z,8.59
2023-03-08T11:06:51.278Z,8.61
2023-03-08T11:09:33.593Z,8.66
2023-03-08T11:12:06.391Z,8.71
2023-03-08T11:14:39.042Z,8.69
2023-03-08T11:17:31.341Z,8.65
2023-03-08T11:20:33.093Z,8.61
2023-03-08T11:23:17.184Z,8.52
2023-03-08T11:26:01.040Z,8.45
2023-03-08T11:31:45.272Z,8.22
2023-03-08T11:34:43.769Z,8.47
2023-03-08T11:37:50.553Z,8.56
2023-03-08T11:40:36.219Z,8.59
2023-03-08T11:43:47.602Z,9.01
2023-03-08T11:46:31.612Z,9.31
2023-03-08T11:49:44.170Z,9.67
2023-03-08T11:52:27.190Z,10.29
2023-03-08T11:55:20.919Z,11.03
2023-03-08T11:57:58.702Z,11.48
2023-03-08T12:12:44.045Z,12.88
2023-03-08T12:15:46.456Z,12.59
2023-03-08T12:18:48.227Z,12.19
2023-03-08T12:21:52.828Z,11.52
2023-03-08T12:24:51.055Z,10.97
2023-03-08T12:27:49.404Z,10.50
2023-03-08T12:30:42.468Z,10.28
2023-03-08T12:33:16.437Z,10.16
2023-03-08T12:35:56.690Z,9.99
2023-03-08T12:38:46.071Z,9.81
2023-03-08T12:41:26.497Z,9.71
2023-03-08T12:44:26.838Z,9.70
2023-03-08T12:47:04.328Z,9.79
2023-03-08T12:49:42.245Z,9.89
2023-03-08T12:52:43.479Z,9.81
2023-03-08T12:55:25.895Z,9.76
2023-03-08T12:58:02.826Z,9.80
2023-03-08T13:00:37.944Z,9.78
2023-03-08T13:03:19.220Z,9.85
2023-03-08T13:05:52.429Z,9.98
2023-03-08T13:08:38.540Z,9.96
2023-03-08T13:11:16.955Z,9.94
2023-03-08T13:13:58.795Z,9.85
2023-03-08T13:16:39.917Z,9.61
2023-03-08T13:19:21.109Z,9.47
2023-03-08T13:22:21.027Z,9.41
2023-03-08T13:24:58.207Z,9.34
2023-03-08T13:27:50.775Z,9.36
2023-03-08T13:30:37.701Z,9.30
2023-03-08T13:33:36.634Z,9.22
2023-03-08T13:36:26.081Z,9.16
2023-03-08T13:39:05.897Z,9.14
2023-03-08T13:41:45.937Z,9.09
2023-03-08T13:44:26.832Z,9.09
2023-03-08T13:47:02.972Z,9.15
2023-03-08T13:49:38.240Z,9.18
2023-03-08T13:52:26.524Z,9.25
2023-03-08T13:55:01.713Z,9.28
2023-03-08T13:57:38.072Z,9.34
2023-03-08T14:00:32.687Z,9.38
2023-03-08T14:03:07.844Z,9.39
2023-03-08T14:05:44.193Z,9.36
2023-03-08T14:08:27.944Z,9.33
2023-03-08T14:11:08.416Z,9.31
2023-03-08T14:13:43.420Z,9.34
2023-03-08T14:16:42.228Z,9.36
2023-03-08T14:19:31.265Z,9.39
2023-03-08T14:22:14.404Z,9.39
2023-03-08T14:24:55.465Z,9.38
2023-03-08T14:27:45.509Z,9.34
2023-03-08T14:30:23.319Z,9.32
2023-03-08T14:33:19.522Z,9.29
2023-03-08T14:36:00.472Z,9.28
2023-03-08T14:38:34.482Z,9.30
2023-03-08T14:41:07.113Z,9.31
2023-03-08T14:43:39.808Z,9.32
2023-03-08T14:46:21.774Z,9.31
2023-03-08T14:49:05.213Z,9.32
2023-03-08T14:51:42.957Z,9.43
2023-03-08T14:54:35.023Z,9.55
2023-03-08T14:57:26.009Z,9.55
2023-03-08T15:00:05.030Z,9.51
2023-03-08T15:02:38.239Z,9.42
2023-03-08T15:05:28.095Z,9.33
2023-03-08T15:08:01.436Z,9.29
2023-03-08T15:10:40.688Z,9.23
2023-03-08T15:13:22.590Z,9.17
2023-03-08T15:15:56.184Z,9.10
2023-03-08T15:18:28.775Z,9.04
2023-03-08T15:21:01.487Z,8.99
2023-03-08T15:23:38.008Z,8.95
2023-03-08T15:26:14.278Z,8.92
2023-03-08T15:28:47.526Z,8.91
2023-03-08T15:31:20.416Z,8.86
2023-03-08T15:33:52.800Z,8.82
2023-03-08T15:36:26.955Z,8.76
2023-03-08T15:39:01.053Z,8.71
2023-03-08T15:41:33.354Z,8.70
2023-03-08T15:44:05.730Z,8.68
2023-03-08T15:46:38.858Z,8.66
2023-03-08T15:49:11.668Z,8.64
2023-03-08T15:51:44.493Z,8.65
2023-03-08T15:54:16.977Z,8.64
2023-03-08T15:56:49.643Z,8.63
2023-03-08T15:59:22.084Z,8.61
2023-03-08T16:01:54.997Z,8.62
2023-03-08T16:04:27.732Z,8.65
2023-03-08T16:07:00.475Z,8.65
2023-03-08T16:09:33.359Z,8.68
2023-03-08T16:12:06.962Z,8.69
2023-03-08T16:14:39.847Z,8.68
2023-03-08T16:17:13.023Z,8.66
2023-03-08T16:19:47.077Z,8.67
2023-03-08T16:22:19.875Z,8.65
2023-03-08T16:24:52.428Z,8.65
2023-03-08T16:27:25.073Z,8.64
2023-03-08T16:29:57.742Z,8.64
2023-03-08T16:32:30.384Z,8.60
2023-03-08T16:35:08.091Z,8.60
2023-03-08T16:37:41.554Z,8.59
2023-03-08T16:40:16.652Z,8.61
2023-03-08T16:42:53.415Z,8.63
2023-03-08T16:45:26.043Z,8.61
2023-03-08T16:47:58.345Z,8.57
2023-03-08T16:50:32.611Z,8.54
2023-03-08T16:53:06.941Z,8.53
2023-03-08T16:55:41.132Z,8.46
2023-03-08T16:58:13.857Z,8.38
2023-03-08T17:00:46.296Z,8.31
2023-03-08T17:03:19.495Z,8.25
2023-03-08T17:05:52.328Z,8.18
2023-03-08T17:08:24.849Z,8.09
2023-03-08T17:10:57.420Z,8.00
2023-03-08T17:13:31.040Z,7.93
2023-03-08T17:16:05.685Z,7.82
2023-03-08T17:18:39.162Z,7.71
2023-03-08T17:21:11.508Z,7.63
2023-03-08T17:23:44.584Z,7.55
2023-03-08T17:26:17.480Z,7.49
2023-03-08T17:28:52.473Z,7.42
2023-03-08T17:31:25.297Z,7.37
2023-03-08T17:33:58.208Z,7.32
2023-03-08T17:36:30.872Z,7.24
2023-03-08T17:39:04.540Z,7.18
2023-03-08T17:41:38.809Z,7.11
2023-03-08T17:44:12.243Z,7.06
2023-03-08T17:46:44.710Z,7.03
2023-03-08T17:49:20.298Z,6.98
2023-03-08T17:52:12.579Z,6.94
2023-03-08T17:54:46.154Z,6.94
2023-03-08T17:57:18.939Z,6.95
2023-03-08T17:59:52.339Z,6.93
2023-03-08T18:02:24.684Z,6.91
2023-03-08T18:04:57.170Z,6.92
2023-03-08T18:07:29.868Z,6.90
2023-03-08T18:10:23.766Z,6.90
2023-03-08T18:12:56.942Z,6.89
2023-03-08T18:15:29.913Z,6.85
2023-03-08T18:18:02.996Z,6.81
2023-03-08T18:20:36.994Z,6.78
2023-03-08T18:23:10.314Z,6.75
2023-03-08T18:25:43.495Z,6.70
2023-03-08T18:28:18.438Z,6.68
2023-03-08T18:30:50.914Z,6.63
2023-03-08T18:33:25.260Z,6.60
2023-03-08T18:35:59.019Z,6.59
2023-03-08T18:38:34.348Z,6.56
2023-03-08T18:41:22.840Z,6.54
2023-03-08T18:43:56.565Z,6.51
2023-03-08T18:46:34.725Z,6.50
2023-03-08T18:49:11.480Z,6.51
2023-03-08T18:51:44.386Z,6.48
2023-03-08T18:54:20.225Z,6.44
2023-03-08T18:56:58.129Z,6.45
2023-03-08T18:59:31.748Z,6.48
2023-03-08T19:02:04.505Z,6.47
2023-03-08T19:04:44.212Z,6.46
2023-03-08T19:07:17.290Z,6.46
2023-03-08T19:09:50.445Z,6.44
2023-03-08T19:12:22.921Z,6.47
2023-03-08T19:14:55.957Z,6.52
2023-03-08T19:17:29.762Z,6.59
2023-03-08T19:20:02.548Z,6.67
2023-03-08T19:22:36.047Z,6.73
2023-03-08T19:25:09.785Z,6.79
2023-03-08T19:27:42.451Z,6.86
2023-03-08T19:30:16.020Z,6.93
2023-03-08T19:32:50.392Z,6.95
2023-03-08T19:35:23.199Z,6.97
2023-03-08T19:37:56.326Z,6.99
2023-03-08T19:40:34.473Z,7.01
2023-03-08T19:43:07.652Z,7.02
2023-03-08T19:45:40.956Z,7.00
2023-03-08T19:48:14.245Z,6.96
2023-03-08T19:50:47.945Z,6.90
2023-03-08T19:53:22.210Z,6.89
2023-03-08T19:55:56.027Z,6.83
2023-03-08T19:58:30.357Z,6.76
2023-03-08T20:01:04.940Z,6.73
2023-03-08T20:03:37.872Z,6.66
2023-03-08T20:06:11.198Z,6.56
2023-03-08T20:08:44.876Z,6.50
2023-03-08T20:11:17.253Z,6.46
2023-03-08T20:13:52.184Z,6.42
2023-03-08T20:16:25.625Z,6.39
2023-03-08T20:18:58.983Z,6.36
2023-03-08T20:21:32.355Z,6.30
2023-03-08T20:24:05.516Z,6.25
2023-03-08T20:26:39.161Z,6.23
2023-03-08T20:29:11.921Z,6.19
2023-03-08T20:31:47.469Z,6.16
2023-03-08T20:34:20.567Z,6.12
2023-03-08T20:36:53.682Z,6.05
2023-03-08T20:39:26.465Z,6.02
2023-03-08T20:41:58.986Z,5.99
2023-03-08T20:44:31.808Z,5.95
2023-03-08T20:47:04.512Z,5.89
2023-03-08T20:49:37.728Z,5.84
2023-03-08T20:52:10.499Z,5.83
2023-03-08T20:54:43.500Z,5.82
2023-03-08T20:57:17.201Z,5.81
2023-03-08T20:59:50.360Z,5.82
2023-03-08T21:02:22.891Z,5.80
2023-03-08T21:05:01.151Z,5.73
2023-03-08T21:07:36.171Z,5.70
2023-03-08T21:10:09.961Z,5.67
2023-03-08T21:12:42.689Z,5.64
2023-03-08T21:18:00.406Z,5.58
2023-03-08T21:20:38.303Z,5.55
2023-03-08T21:23:11.205Z,5.49
2023-03-08T21:25:44.044Z,5.46
2023-03-08T21:28:17.354Z,5.45
2023-03-08T21:30:50.805Z,5.43
2023-03-08T21:33:24.442Z,5.42
2023-03-08T21:35:56.832Z,5.44
2023-03-08T21:38:29.410Z,5.43
2023-03-08T21:41:03.102Z,5.41
2023-03-08T21:43:36.666Z,5.42
2023-03-08T21:46:09.724Z,5.42
2023-03-08T21:48:42.609Z,5.39
2023-03-08T21:51:15.237Z,5.35
2023-03-08T21:53:48.457Z,5.35
2023-03-08T21:56:21.453Z,5.32
2023-03-08T21:58:55.137Z,5.32
2023-03-08T22:01:29.876Z,5.30
2023-03-08T22:04:03.004Z,5.31
2023-03-08T22:06:35.864Z,5.31
2023-03-08T22:09:09.972Z,5.30
2023-03-08T22:11:43.624Z,5.29
2023-03-08T22:27:36.184Z,5.52
2023-03-08T22:30:11.661Z,5.32
2023-03-08T22:32:44.202Z,5.13
2023-03-08T22:35:17.011Z,5.02
2023-03-08T22:37:49.903Z,4.93
2023-03-08T22:40:22.442Z,4.83
2023-03-08T22:42:54.826Z,4.74
2023-03-08T22:45:27.124Z,4.68
2023-03-08T22:48:00.789Z,4.67
2023-03-08T22:50:34.184Z,4.68
2023-03-08T22:53:07.801Z,4.64
2023-03-08T22:55:47.748Z,4.66
2023-03-08T22:58:21.365Z,4.65
2023-03-08T23:00:53.924Z,4.65
2023-03-08T23:03:26.591Z,4.63
2023-03-08T23:06:00.554Z,4.60
2023-03-08T23:08:33.346Z,4.60
2023-03-08T23:11:07.005Z,4.59
2023-03-08T23:13:41.585Z,4.58
2023-03-08T23:16:15.896Z,4.55
2023-03-08T23:18:50.993Z,4.55
2023-03-08T23:21:25.280Z,4.51
2023-03-08T23:23:59.532Z,4.45
2023-03-08T23:26:32.909Z,4.41
2023-03-08T23:29:05.719Z,4.42
2023-03-08T23:31:40.738Z,4.40
2023-03-08T23:34:14.350Z,4.40
2023-03-08T23:36:47.006Z,4.42
2023-03-08T23:39:20.170Z,4.43
2023-03-08T23:41:52.673Z,4.47
2023-03-08T23:44:25.553Z,4.48
2023-03-08T23:46:57.975Z,4.47
2023-03-08T23:49:30.841Z,4.46
2023-03-08T23:52:03.516Z,4.43
2023-03-08T23:54:36.522Z,4.41
2023-03-08T23:57:09.219Z,4.42
2023-03-08T23:59:41.862Z,4.44
